Portada
METAR-TAF:

METAR-TAF

Aeroports :

Beckley, Virgínia de l'Oest, Estats Units d'Amèrica

latitud: 37-47-42N, longitud: 081-07-29W, altitud: 763 m

Observació

L'informe es va fer fa 24 minuts, a les 00:51 UTC
Vent 6 kt del Sud-Est
Temperatura -1°C
Humitat 40%
Pressió 1024 hPa
Visibilitat: 16.1 km
Cel clar

METAR: KBKW 140051Z AUTO 14006KT 10SM CLR M01/M13 A3023 RMK AO2 SLP284 T10111133

Hora: 20:15 (01:15 UTC)

Pronòstic

L'informe es va fer fa 1 hora i 52 minuts, a les 23:23 UTC
Pronòstic vàlid del 14 a les 00 UTC al 14 a les 24 UTC
Vent 6 kt del Sud-Est
Visibilitat: 10 km
Cel clar
A partir de les 14 a les 0200 UTC
Vent 5 kt del Sud/Sud-Est
Visibilitat: 10 km
Escasses núvols a una alçada de 25000 ft
A partir de les 14 a les 0900 UTC
Vent 3 kt amb direcció variable
Visibilitat: 10 km
Núvols disperses a una alçada de 25000 ft

TAF: KBKW 132323Z 1400/1424 14006KT P6SM SKC FM140200 15005KT P6SM FEW250 FM140900 VRB03KT P6SM SCT250

Observacions i pronòstics meteorològics de més de 4000 aeroports (METAR i TAF).

Les estacions disponibles són els punts grocs i vermells al mapa.

Posi el ratolí al punt desitjat per veure el nom de l'estació.

Feu clic per veure les observacions i els pronòstics meteorològics.

Per canviar el mapa: feu clic els botons verds amb una creu de color negre per apropar; al botó verd amb un guió per allunyar la imatge; o en les fletxes verdes per a mapes adjacents.


METAR-TAF: